createdAt,value
2023-05-05T00:00:00.651Z,85.00
2023-05-05T00:02:32.521Z,84.90
2023-05-05T00:05:04.229Z,85.00
2023-05-05T00:07:37.321Z,85.30
2023-05-05T00:10:10.543Z,86.50
2023-05-05T00:12:42.191Z,85.90
2023-05-05T00:15:14.394Z,86.20
2023-05-05T00:17:46.345Z,86.40
2023-05-05T00:20:18.207Z,86.30
2023-05-05T00:22:51.366Z,87.00
2023-05-05T00:25:23.279Z,87.10
2023-05-05T00:27:55.282Z,87.40
2023-05-05T00:30:27.189Z,87.70
2023-05-05T00:32:59.268Z,87.60
2023-05-05T00:35:31.065Z,88.00
2023-05-05T00:38:04.136Z,88.10
2023-05-05T00:40:35.999Z,88.80
2023-05-05T00:43:08.195Z,89.30
2023-05-05T00:45:42.763Z,89.20
2023-05-05T00:48:14.952Z,89.10
2023-05-05T00:50:48.202Z,89.50
2023-05-05T00:53:21.283Z,89.60
2023-05-05T00:55:53.556Z,89.70
2023-05-05T00:58:25.610Z,89.90
2023-05-05T01:00:57.402Z,90.00
2023-05-05T01:03:29.334Z,90.30
2023-05-05T01:06:11.113Z,90.40
2023-05-05T01:08:56.564Z,90.50
2023-05-05T01:11:40.725Z,90.60
2023-05-05T01:14:23.993Z,91.00
2023-05-05T01:17:07.976Z,90.60
2023-05-05T01:20:15.579Z,90.80
2023-05-05T01:22:54.908Z,91.00
2023-05-05T01:25:50.388Z,91.20
2023-05-05T01:28:38.223Z,91.30
2023-05-05T01:31:28.037Z,91.40
2023-05-05T01:34:08.426Z,91.30
2023-05-05T01:36:45.532Z,91.50
2023-05-05T01:39:21.862Z,91.90
2023-05-05T01:42:03.600Z,92.10
2023-05-05T01:44:37.343Z,92.30
2023-05-05T01:47:10.978Z,92.40
2023-05-05T01:49:47.205Z,92.50
2023-05-05T01:52:21.551Z,92.70
2023-05-05T01:54:58.464Z,92.60
2023-05-05T01:57:34.121Z,92.80
2023-05-05T02:00:09.813Z,92.90
2023-05-05T02:02:46.326Z,93.10
2023-05-05T02:05:23.539Z,93.40
2023-05-05T02:07:59.963Z,93.40
2023-05-05T02:10:33.451Z,93.30
2023-05-05T02:13:06.768Z,93.90
2023-05-05T02:15:41.412Z,93.70
2023-05-05T02:18:15.157Z,93.70
2023-05-05T02:20:49.605Z,93.70
2023-05-05T02:23:22.080Z,93.80
2023-05-05T02:26:00.801Z,93.80
2023-05-05T02:28:48.136Z,93.90
2023-05-05T02:31:24.567Z,93.90
2023-05-05T02:34:01.453Z,94.30
2023-05-05T02:36:38.542Z,94.60
2023-05-05T02:39:20.766Z,94.60
2023-05-05T02:41:56.192Z,94.60
2023-05-05T02:44:30.060Z,94.40
2023-05-05T02:47:03.810Z,94.40
2023-05-05T02:49:35.945Z,94.50
2023-05-05T02:52:09.163Z,94.50
2023-05-05T02:54:41.215Z,94.80
2023-05-05T02:57:20.897Z,94.90
2023-05-05T03:00:01.968Z,95.00
2023-05-05T03:02:44.436Z,95.20
2023-05-05T03:05:23.258Z,95.30
2023-05-05T03:08:03.163Z,95.30
2023-05-05T03:11:00.021Z,95.30
2023-05-05T03:13:35.484Z,95.30
2023-05-05T03:16:10.026Z,95.40
2023-05-05T03:18:45.362Z,95.40
2023-05-05T03:21:17.353Z,95.40
2023-05-05T03:23:51.140Z,95.30
2023-05-05T03:26:22.822Z,95.40
2023-05-05T03:28:54.728Z,95.60
2023-05-05T03:31:28.283Z,95.60
2023-05-05T03:33:59.941Z,95.60
2023-05-05T03:36:32.946Z,95.70
2023-05-05T03:39:06.232Z,95.90
2023-05-05T03:41:38.077Z,95.90
2023-05-05T03:44:09.869Z,95.90
2023-05-05T03:46:41.684Z,96.20
2023-05-05T03:49:13.591Z,96.10
2023-05-05T03:51:45.558Z,96.20
2023-05-05T03:54:19.241Z,96.30
2023-05-05T03:56:51.074Z,96.30
2023-05-05T03:59:23.020Z,96.40
2023-05-05T04:01:54.859Z,96.30
2023-05-05T04:04:26.860Z,96.50
2023-05-05T04:06:58.560Z,96.50
2023-05-05T04:09:31.788Z,96.40
2023-05-05T04:12:03.578Z,96.50
2023-05-05T04:14:35.813Z,96.50
2023-05-05T04:17:07.524Z,96.50
2023-05-05T04:19:39.337Z,97.00
2023-05-05T04:22:11.372Z,96.60
2023-05-05T04:24:44.298Z,96.80
2023-05-05T04:27:16.379Z,97.40
2023-05-05T04:29:48.150Z,97.00
2023-05-05T04:32:20.014Z,97.20
2023-05-05T04:34:51.816Z,97.60
2023-05-05T04:37:23.580Z,97.30
2023-05-05T04:39:56.982Z,97.30
2023-05-05T04:42:28.847Z,97.20
2023-05-05T04:45:00.628Z,97.50
2023-05-05T04:47:32.555Z,97.40
2023-05-05T04:50:04.415Z,97.40
2023-05-05T04:52:36.247Z,97.40
2023-05-05T04:55:11.608Z,97.50
2023-05-05T04:57:43.373Z,97.60
2023-05-05T05:00:17.664Z,97.50
2023-05-05T05:02:49.621Z,97.50
2023-05-05T05:05:21.546Z,97.60
2023-05-05T05:07:53.253Z,97.80
2023-05-05T05:10:26.424Z,97.90
2023-05-05T05:12:58.371Z,98.00
2023-05-05T05:15:31.122Z,98.00
2023-05-05T05:18:03.013Z,97.90
2023-05-05T05:20:35.389Z,97.90
2023-05-05T05:23:07.189Z,97.80
2023-05-05T05:25:40.370Z,98.00
2023-05-05T05:28:12.284Z,98.20
2023-05-05T05:30:44.067Z,98.10
2023-05-05T05:33:15.914Z,98.10
2023-05-05T05:35:47.820Z,98.10
2023-05-05T05:38:19.712Z,98.00
2023-05-05T05:40:54.629Z,98.00
2023-05-05T05:43:26.183Z,97.80
2023-05-05T05:45:58.064Z,97.50
2023-05-05T05:48:29.965Z,97.40
2023-05-05T05:51:02.440Z,97.70
2023-05-05T05:53:35.929Z,97.30
2023-05-05T05:56:11.051Z,97.40
2023-05-05T05:58:42.914Z,97.20
2023-05-05T06:01:14.807Z,97.20
2023-05-05T06:03:46.735Z,97.20
2023-05-05T06:06:18.407Z,97.00
2023-05-05T06:08:51.813Z,96.90
2023-05-05T06:11:25.078Z,97.00
2023-05-05T06:13:56.884Z,97.10
2023-05-05T06:16:30.333Z,97.00
2023-05-05T06:19:02.196Z,97.00
2023-05-05T06:21:34.126Z,96.80
2023-05-05T06:24:06.017Z,96.90
2023-05-05T06:26:39.207Z,97.00
2023-05-05T06:29:12.348Z,96.60
2023-05-05T06:31:46.230Z,96.30
2023-05-05T06:34:18.199Z,96.30
2023-05-05T06:36:50.158Z,97.00
2023-05-05T06:39:21.762Z,96.60
2023-05-05T06:41:54.835Z,96.30
2023-05-05T06:44:28.223Z,95.80
2023-05-05T06:47:00.681Z,96.10
2023-05-05T06:49:32.645Z,95.40
2023-05-05T06:52:04.619Z,95.90
2023-05-05T06:54:36.424Z,95.80
2023-05-05T06:57:09.411Z,95.50
2023-05-05T06:59:42.637Z,95.00
2023-05-05T07:02:14.526Z,95.10
2023-05-05T07:04:46.545Z,94.70
2023-05-05T07:07:18.395Z,94.90
2023-05-05T07:09:50.219Z,94.90
2023-05-05T07:12:23.288Z,95.20
2023-05-05T07:14:56.807Z,94.90
2023-05-05T07:17:28.438Z,95.20
2023-05-05T07:20:00.254Z,94.90
2023-05-05T07:22:32.187Z,95.00
2023-05-05T07:25:05.529Z,94.70
2023-05-05T07:27:39.972Z,94.60
2023-05-05T07:30:18.501Z,94.60
2023-05-05T07:32:51.084Z,94.20
2023-05-05T07:35:23.081Z,94.30
2023-05-05T07:37:56.495Z,94.40
2023-05-05T07:40:28.244Z,94.40
2023-05-05T07:43:01.517Z,94.30
2023-05-05T07:45:33.963Z,94.60
2023-05-05T07:48:05.958Z,94.70
2023-05-05T07:50:39.617Z,94.10
2023-05-05T07:53:14.958Z,94.20
2023-05-05T07:55:46.907Z,93.60
2023-05-05T07:58:19.939Z,93.20
2023-05-05T08:00:53.213Z,93.60
2023-05-05T08:03:25.354Z,93.80
2023-05-05T08:06:06.727Z,92.70
2023-05-05T08:08:39.589Z,92.80
2023-05-05T08:11:11.501Z,92.80
2023-05-05T08:13:44.456Z,92.90
2023-05-05T08:16:16.766Z,92.60
2023-05-05T08:18:50.215Z,92.20
2023-05-05T08:21:22.384Z,92.80
2023-05-05T08:23:53.938Z,92.90
2023-05-05T08:26:25.920Z,92.40
2023-05-05T08:29:00.787Z,92.20
2023-05-05T08:31:37.794Z,92.70
2023-05-05T08:34:09.928Z,91.80
2023-05-05T08:36:41.741Z,91.80
2023-05-05T08:39:13.572Z,91.40
2023-05-05T08:41:45.863Z,92.10
2023-05-05T08:44:18.942Z,91.80
2023-05-05T08:46:52.286Z,91.30
2023-05-05T08:49:25.370Z,91.30
2023-05-05T08:52:00.362Z,90.70
2023-05-05T08:54:35.883Z,91.10
2023-05-05T08:57:11.882Z,91.00
2023-05-05T08:59:46.008Z,89.80
2023-05-05T09:02:19.347Z,90.40
2023-05-05T09:04:51.527Z,89.70
2023-05-05T09:07:25.618Z,90.20
2023-05-05T09:09:59.697Z,90.40
2023-05-05T09:12:35.544Z,90.30
2023-05-05T09:15:11.614Z,89.00
2023-05-05T09:17:45.539Z,89.30
2023-05-05T09:20:18.503Z,89.30
2023-05-05T09:22:53.176Z,90.00
2023-05-05T09:25:25.090Z,89.40
2023-05-05T09:27:56.895Z,90.20
2023-05-05T09:30:31.383Z,89.50
2023-05-05T09:33:05.547Z,87.50
2023-05-05T09:35:54.427Z,87.70
2023-05-05T09:38:27.997Z,87.70
2023-05-05T09:40:59.814Z,88.90
2023-05-05T09:43:31.663Z,86.50
2023-05-05T09:46:12.129Z,85.40
2023-05-05T09:48:44.001Z,85.40
2023-05-05T09:51:16.128Z,82.40
2023-05-05T09:53:47.863Z,85.10
2023-05-05T09:56:19.867Z,83.60
2023-05-05T09:58:51.441Z,82.60
2023-05-05T10:01:28.449Z,81.60
2023-05-05T10:04:00.417Z,82.50
2023-05-05T10:06:47.427Z,81.90
2023-05-05T10:09:20.979Z,82.70
2023-05-05T10:11:57.284Z,80.60
2023-05-05T10:14:32.735Z,81.10
2023-05-05T10:17:08.074Z,83.10
2023-05-05T10:19:42.878Z,83.10
2023-05-05T10:22:15.067Z,81.20
2023-05-05T10:24:52.363Z,79.90
2023-05-05T10:27:29.245Z,78.30
2023-05-05T10:30:12.997Z,78.90
2023-05-05T10:33:07.878Z,79.10
2023-05-05T10:35:51.593Z,76.10
2023-05-05T10:38:25.535Z,76.90
2023-05-05T10:41:01.794Z,77.10
2023-05-05T10:43:34.740Z,77.30
2023-05-05T10:46:07.358Z,75.80
2023-05-05T10:48:48.267Z,77.10
2023-05-05T10:51:39.340Z,75.70
2023-05-05T10:54:21.938Z,74.50
2023-05-05T10:56:55.142Z,77.20
2023-05-05T10:59:48.112Z,72.90
2023-05-05T11:02:28.812Z,74.60
2023-05-05T11:05:21.291Z,74.10
2023-05-05T11:07:54.640Z,71.30
2023-05-05T11:10:26.510Z,72.90
2023-05-05T11:13:21.946Z,72.10
2023-05-05T11:15:55.384Z,70.80
2023-05-05T11:18:38.211Z,74.20
2023-05-05T11:21:18.349Z,73.20
2023-05-05T11:24:28.539Z,75.00
2023-05-05T11:27:01.307Z,75.00
2023-05-05T11:30:09.574Z,74.80
2023-05-05T11:32:41.481Z,75.00
2023-05-05T11:35:14.240Z,75.00
2023-05-05T11:38:01.900Z,75.90
2023-05-05T11:40:38.484Z,76.40
2023-05-05T11:43:12.409Z,73.80
2023-05-05T11:45:44.221Z,73.60
2023-05-05T11:48:30.770Z,75.10
2023-05-05T11:51:05.378Z,74.90
2023-05-05T11:53:42.588Z,75.70
2023-05-05T11:56:19.256Z,76.50
2023-05-05T11:59:05.732Z,75.20
2023-05-05T12:01:40.271Z,73.00
2023-05-05T12:04:15.254Z,74.30
2023-05-05T12:06:48.961Z,74.00
2023-05-05T12:09:24.304Z,74.40
2023-05-05T12:12:00.483Z,73.60
2023-05-05T12:14:34.409Z,74.90
2023-05-05T12:17:09.425Z,74.40
2023-05-05T12:19:48.147Z,74.10
2023-05-05T12:22:24.659Z,74.20
2023-05-05T12:25:03.091Z,73.50
2023-05-05T12:27:36.263Z,73.10
2023-05-05T12:30:19.240Z,73.10
2023-05-05T12:32:51.077Z,74.00
2023-05-05T12:35:22.823Z,74.00
2023-05-05T12:37:54.748Z,71.30
2023-05-05T12:40:49.606Z,73.40
2023-05-05T12:43:35.517Z,74.80
2023-05-05T12:46:07.102Z,76.40
2023-05-05T12:48:44.453Z,75.00
2023-05-05T12:51:23.034Z,73.60
2023-05-05T12:54:07.443Z,75.40
2023-05-05T12:56:44.055Z,74.40
2023-05-05T12:59:32.813Z,71.60
2023-05-05T13:02:05.101Z,71.70
2023-05-05T13:04:48.468Z,73.70
2023-05-05T13:07:21.695Z,72.50
2023-05-05T13:10:10.488Z,69.30
2023-05-05T13:12:43.452Z,72.20
2023-05-05T13:15:17.729Z,72.90
2023-05-05T13:17:49.614Z,72.40
2023-05-05T13:20:21.384Z,70.70
2023-05-05T13:22:54.742Z,70.50
2023-05-05T13:25:27.990Z,71.10
2023-05-05T13:28:00.957Z,72.20
2023-05-05T13:30:34.246Z,70.90
2023-05-05T13:33:06.268Z,70.10
2023-05-05T13:35:39.585Z,70.00
2023-05-05T13:38:11.362Z,69.70
2023-05-05T13:40:43.183Z,69.90
2023-05-05T13:43:16.174Z,68.80
2023-05-05T13:45:48.107Z,69.30
2023-05-05T13:48:21.323Z,68.70
2023-05-05T13:50:54.606Z,65.30
2023-05-05T13:53:27.909Z,66.40
2023-05-05T13:56:00.146Z,64.70
2023-05-05T13:58:34.195Z,65.80
2023-05-05T14:01:09.520Z,65.80
2023-05-05T14:03:41.205Z,65.10
2023-05-05T14:06:13.565Z,66.50
2023-05-05T14:08:46.084Z,66.40
2023-05-05T14:11:18.217Z,65.70
2023-05-05T14:13:51.922Z,65.50
2023-05-05T14:16:23.600Z,66.70
2023-05-05T14:18:57.628Z,66.10
2023-05-05T14:21:29.308Z,65.70
2023-05-05T14:24:01.160Z,67.00
2023-05-05T14:26:33.041Z,66.10
2023-05-05T14:29:06.198Z,67.30
2023-05-05T14:31:39.767Z,67.00
2023-05-05T14:34:11.714Z,67.70
2023-05-05T14:36:43.363Z,67.20
2023-05-05T14:39:16.654Z,67.80
2023-05-05T14:41:48.572Z,67.90
2023-05-05T14:44:21.811Z,68.10
2023-05-05T14:46:53.587Z,67.00
2023-05-05T14:49:25.540Z,68.10
2023-05-05T14:51:58.934Z,67.30
2023-05-05T14:54:30.778Z,68.40
2023-05-05T14:57:02.860Z,68.40
2023-05-05T14:59:36.121Z,69.00
2023-05-05T15:02:08.100Z,69.80
2023-05-05T15:04:39.924Z,69.50
2023-05-05T15:07:11.893Z,70.70
2023-05-05T15:09:43.746Z,70.10
2023-05-05T15:12:15.711Z,69.40
2023-05-05T15:14:48.624Z,70.40
2023-05-05T15:17:20.528Z,71.30
2023-05-05T15:19:52.217Z,69.80
2023-05-05T15:22:24.035Z,70.20
2023-05-05T15:24:55.839Z,69.90
2023-05-05T15:27:27.945Z,70.70
2023-05-05T15:30:01.176Z,70.60
2023-05-05T15:32:35.062Z,71.80
2023-05-05T15:35:06.962Z,71.50
2023-05-05T15:37:39.098Z,71.20
2023-05-05T15:40:13.458Z,70.80
2023-05-05T15:42:45.770Z,71.40
2023-05-05T15:45:18.868Z,72.10
2023-05-05T15:47:51.010Z,72.00
2023-05-05T15:50:23.322Z,72.40
2023-05-05T15:52:56.778Z,73.10
2023-05-05T15:55:31.257Z,74.00
2023-05-05T15:58:03.051Z,73.10
2023-05-05T16:00:35.961Z,73.60
2023-05-05T16:03:07.977Z,74.00
2023-05-05T16:05:41.699Z,75.00
2023-05-05T16:08:15.031Z,75.40
2023-05-05T16:10:46.850Z,77.10
2023-05-05T16:13:18.733Z,78.20
2023-05-05T16:15:51.796Z,79.30
2023-05-05T16:18:23.714Z,82.00
2023-05-05T16:20:55.583Z,83.50
2023-05-05T16:23:27.402Z,85.90
2023-05-05T16:26:00.979Z,86.10
2023-05-05T16:28:34.179Z,89.80
2023-05-05T16:31:09.423Z,89.40
2023-05-05T16:33:43.744Z,90.20
2023-05-05T16:36:17.810Z,90.50
2023-05-05T16:38:50.851Z,90.90
2023-05-05T16:41:23.374Z,91.20
2023-05-05T16:43:55.424Z,91.80
2023-05-05T16:46:28.577Z,92.30
2023-05-05T16:49:00.492Z,92.90
2023-05-05T16:51:32.409Z,93.90
2023-05-05T16:54:04.331Z,94.70
2023-05-05T16:56:36.728Z,95.80
2023-05-05T16:59:08.596Z,95.60
2023-05-05T17:01:43.330Z,96.20
2023-05-05T17:04:15.120Z,96.40
2023-05-05T17:06:48.305Z,97.20
2023-05-05T17:09:24.688Z,97.40
2023-05-05T17:11:56.571Z,97.70
2023-05-05T17:14:28.456Z,98.10
2023-05-05T17:17:01.504Z,99.00
2023-05-05T17:19:33.384Z,98.90
2023-05-05T17:22:06.678Z,99.50
2023-05-05T17:24:39.923Z,99.30
2023-05-05T17:27:12.713Z,99.70
2023-05-05T17:29:44.634Z,99.50
2023-05-05T17:32:18.293Z,99.50
2023-05-05T17:34:50.142Z,99.10
2023-05-05T17:37:22.076Z,99.20
2023-05-05T17:39:53.879Z,99.30
2023-05-05T17:42:27.019Z,99.70
2023-05-05T17:44:58.603Z,99.90
2023-05-05T17:47:31.903Z,99.90
2023-05-05T17:50:03.609Z,99.90
2023-05-05T17:52:35.472Z,99.90
2023-05-05T17:55:07.749Z,99.90
2023-05-05T17:57:39.915Z,99.90
2023-05-05T18:00:13.710Z,99.90
2023-05-05T18:02:46.749Z,99.90
2023-05-05T18:05:19.010Z,99.90
2023-05-05T18:07:50.877Z,99.90
2023-05-05T18:10:24.042Z,99.90
2023-05-05T18:12:55.852Z,99.90
2023-05-05T18:15:29.727Z,99.90
2023-05-05T18:18:03.458Z,99.90
2023-05-05T18:20:36.868Z,99.90
2023-05-05T18:23:08.764Z,99.90
2023-05-05T18:25:41.458Z,99.90
2023-05-05T18:28:13.312Z,99.90
2023-05-05T18:30:45.280Z,99.90
2023-05-05T18:33:18.303Z,99.90
2023-05-05T18:35:50.144Z,99.90
2023-05-05T18:38:22.221Z,99.90
2023-05-05T18:40:54.008Z,99.90
2023-05-05T18:43:25.838Z,99.90
2023-05-05T18:45:57.833Z,99.90
2023-05-05T18:48:31.040Z,99.90
2023-05-05T18:51:06.974Z,99.90
2023-05-05T18:53:39.266Z,99.90
2023-05-05T18:56:11.022Z,99.90
2023-05-05T18:58:42.896Z,99.90
2023-05-05T19:01:14.816Z,99.90
2023-05-05T19:03:51.419Z,99.90
2023-05-05T19:06:23.539Z,99.90
2023-05-05T19:08:55.413Z,99.90
2023-05-05T19:11:27.298Z,99.90
2023-05-05T19:13:59.230Z,99.90
2023-05-05T19:16:31.178Z,99.90
2023-05-05T19:19:04.372Z,99.90
2023-05-05T19:21:36.323Z,99.90
2023-05-05T19:24:09.609Z,99.90
2023-05-05T19:26:41.398Z,99.90
2023-05-05T19:29:13.314Z,99.90
2023-05-05T19:31:46.718Z,99.90
2023-05-05T19:34:19.702Z,99.90
2023-05-05T19:36:51.619Z,99.90
2023-05-05T19:39:23.436Z,99.90
2023-05-05T19:41:55.329Z,99.90
2023-05-05T19:44:27.067Z,99.90
2023-05-05T19:46:59.011Z,99.90
2023-05-05T19:49:32.008Z,99.90
2023-05-05T19:52:03.928Z,99.90
2023-05-05T19:54:36.079Z,99.90
2023-05-05T19:57:07.701Z,99.90
2023-05-05T19:59:39.596Z,99.90
2023-05-05T20:02:12.161Z,99.90
2023-05-05T20:04:45.956Z,99.90
2023-05-05T20:07:17.890Z,99.90
2023-05-05T20:09:49.874Z,99.90
2023-05-05T20:12:23.061Z,99.90
2023-05-05T20:14:54.952Z,99.90
2023-05-05T20:17:26.846Z,99.90
2023-05-05T20:20:00.062Z,99.90
2023-05-05T20:22:31.978Z,99.90
2023-05-05T20:25:03.984Z,99.90
2023-05-05T20:27:36.143Z,99.90
2023-05-05T20:30:10.764Z,99.90
2023-05-05T20:32:43.462Z,99.90
2023-05-05T20:35:16.751Z,99.90
2023-05-05T20:37:48.745Z,99.90
2023-05-05T20:40:20.732Z,99.90
2023-05-05T20:42:52.362Z,99.90
2023-05-05T20:45:24.974Z,99.90
2023-05-05T20:47:56.654Z,99.90
2023-05-05T20:50:29.648Z,99.90
2023-05-05T20:53:01.563Z,99.90
2023-05-05T20:55:33.946Z,99.90
2023-05-05T20:58:06.731Z,99.90
2023-05-05T21:00:38.723Z,99.90
2023-05-05T21:03:10.662Z,99.90
2023-05-05T21:05:44.649Z,99.90
2023-05-05T21:08:16.427Z,99.90
2023-05-05T21:10:48.216Z,99.90
2023-05-05T21:13:20.110Z,99.90
2023-05-05T21:15:51.983Z,99.90
2023-05-05T21:18:25.709Z,99.90
2023-05-05T21:20:58.970Z,99.90
2023-05-05T21:23:31.296Z,99.90
2023-05-05T21:26:05.906Z,99.90
2023-05-05T21:28:37.564Z,99.90
2023-05-05T21:31:21.684Z,99.90
2023-05-05T21:33:54.214Z,99.90
2023-05-05T21:36:27.433Z,99.90
2023-05-05T21:39:00.483Z,99.90
2023-05-05T21:41:32.329Z,99.90
2023-05-05T21:44:04.255Z,99.90
2023-05-05T21:46:36.220Z,99.90
2023-05-05T21:49:17.377Z,99.90
2023-05-05T21:51:51.169Z,99.90
2023-05-05T21:54:23.162Z,99.90
2023-05-05T21:56:55.016Z,99.90
2023-05-05T21:59:27.132Z,99.90
2023-05-05T22:01:59.104Z,99.90
2023-05-05T22:04:30.890Z,99.90
2023-05-05T22:07:03.819Z,99.90
2023-05-05T22:09:35.697Z,99.90
2023-05-05T22:12:07.553Z,99.90
2023-05-05T22:14:39.513Z,99.90
2023-05-05T22:17:11.565Z,99.90
2023-05-05T22:19:43.180Z,99.90
2023-05-05T22:22:17.367Z,99.90
2023-05-05T22:24:49.371Z,99.90
2023-05-05T22:27:21.203Z,99.90
2023-05-05T22:29:53.028Z,99.90
2023-05-05T22:32:24.971Z,99.90
2023-05-05T22:34:56.845Z,99.90
2023-05-05T22:37:29.748Z,99.90
2023-05-05T22:40:01.643Z,99.90
2023-05-05T22:42:45.289Z,99.90
2023-05-05T22:45:19.345Z,99.90
2023-05-05T22:47:51.543Z,99.90
2023-05-05T22:50:23.599Z,99.90
2023-05-05T22:52:57.139Z,99.90
2023-05-05T22:55:28.797Z,99.90
2023-05-05T22:58:00.637Z,99.90
2023-05-05T23:00:32.366Z,99.90
2023-05-05T23:03:04.295Z,99.90
2023-05-05T23:05:36.189Z,99.90
2023-05-05T23:08:09.837Z,99.90
2023-05-05T23:10:41.691Z,99.90
2023-05-05T23:13:13.607Z,99.90
2023-05-05T23:15:45.550Z,99.90
2023-05-05T23:18:17.373Z,99.90
2023-05-05T23:20:49.362Z,99.90
2023-05-05T23:23:22.544Z,99.90
2023-05-05T23:25:54.422Z,99.90
2023-05-05T23:28:26.263Z,99.90
2023-05-05T23:30:58.254Z,99.90
2023-05-05T23:33:30.120Z,99.90
2023-05-05T23:36:01.919Z,99.90
2023-05-05T23:38:35.115Z,99.90
2023-05-05T23:41:07.036Z,99.90
2023-05-05T23:43:38.897Z,99.90
2023-05-05T23:46:10.789Z,99.90
2023-05-05T23:48:42.658Z,99.90
2023-05-05T23:51:14.463Z,99.90
2023-05-05T23:53:47.406Z,99.90
2023-05-05T23:56:19.299Z,99.90
2023-05-05T23:58:52.388Z,99.90
